sensor_id;sensor_type;location;lat;lon;timestamp;P1;durP1;ratioP1;P2;durP2;ratioP2
3297;SDS011;1661;53.572;10.174;2022-12-28T00:00:55;12.90;;;7.13;;
3297;SDS011;1661;53.572;10.174;2022-12-28T00:03:23;7.70;;;5.80;;
3297;SDS011;1661;53.572;10.174;2022-12-28T00:05:50;7.60;;;5.97;;
3297;SDS011;1661;53.572;10.174;2022-12-28T00:08:16;20.50;;;7.53;;
3297;SDS011;1661;53.572;10.174;2022-12-28T00:10:43;8.57;;;6.03;;
3297;SDS011;1661;53.572;10.174;2022-12-28T00:13:10;10.37;;;5.67;;
3297;SDS011;1661;53.572;10.174;2022-12-28T00:15:37;12.60;;;5.80;;
3297;SDS011;1661;53.572;10.174;2022-12-28T00:18:03;13.80;;;6.67;;
3297;SDS011;1661;53.572;10.174;2022-12-28T00:20:32;10.50;;;6.00;;
3297;SDS011;1661;53.572;10.174;2022-12-28T00:22:58;7.23;;;4.70;;
3297;SDS011;1661;53.572;10.174;2022-12-28T00:25:29;12.33;;;5.50;;
3297;SDS011;1661;53.572;10.174;2022-12-28T00:27:56;16.13;;;5.47;;
3297;SDS011;1661;53.572;10.174;2022-12-28T00:30:22;10.33;;;4.50;;
3297;SDS011;1661;53.572;10.174;2022-12-28T00:32:49;9.63;;;4.43;;
3297;SDS011;1661;53.572;10.174;2022-12-28T00:35:16;8.03;;;3.90;;
3297;SDS011;1661;53.572;10.174;2022-12-28T00:37:44;9.40;;;4.90;;
3297;SDS011;1661;53.572;10.174;2022-12-28T00:40:11;7.27;;;3.93;;
3297;SDS011;1661;53.572;10.174;2022-12-28T00:42:37;10.50;;;5.13;;
3297;SDS011;1661;53.572;10.174;2022-12-28T00:45:05;4.80;;;3.60;;
3297;SDS011;1661;53.572;10.174;2022-12-28T00:47:32;7.10;;;2.90;;
3297;SDS011;1661;53.572;10.174;2022-12-28T00:49:59;7.43;;;3.60;;
3297;SDS011;1661;53.572;10.174;2022-12-28T00:52:25;8.33;;;3.53;;
3297;SDS011;1661;53.572;10.174;2022-12-28T00:54:54;7.50;;;3.97;;
3297;SDS011;1661;53.572;10.174;2022-12-28T00:57:20;5.53;;;4.27;;
3297;SDS011;1661;53.572;10.174;2022-12-28T00:59:47;6.53;;;4.00;;
3297;SDS011;1661;53.572;10.174;2022-12-28T01:02:14;6.90;;;3.30;;
3297;SDS011;1661;53.572;10.174;2022-12-28T01:04:41;11.60;;;4.03;;
3297;SDS011;1661;53.572;10.174;2022-12-28T01:07:07;4.90;;;2.70;;
3297;SDS011;1661;53.572;10.174;2022-12-28T01:09:34;10.90;;;4.10;;
3297;SDS011;1661;53.572;10.174;2022-12-28T01:12:02;5.43;;;3.30;;
3297;SDS011;1661;53.572;10.174;2022-12-28T01:14:30;8.13;;;3.47;;
3297;SDS011;1661;53.572;10.174;2022-12-28T01:16:57;5.50;;;2.87;;
3297;SDS011;1661;53.572;10.174;2022-12-28T01:19:24;7.13;;;3.33;;
3297;SDS011;1661;53.572;10.174;2022-12-28T01:21:50;6.13;;;3.17;;
3297;SDS011;1661;53.572;10.174;2022-12-28T01:24:17;5.10;;;3.03;;
3297;SDS011;1661;53.572;10.174;2022-12-28T01:26:44;7.97;;;3.23;;
3297;SDS011;1661;53.572;10.174;2022-12-28T01:29:12;6.67;;;3.90;;
3297;SDS011;1661;53.572;10.174;2022-12-28T01:31:40;9.70;;;4.03;;
3297;SDS011;1661;53.572;10.174;2022-12-28T01:34:06;9.67;;;3.00;;
3297;SDS011;1661;53.572;10.174;2022-12-28T01:36:33;10.53;;;2.70;;
3297;SDS011;1661;53.572;10.174;2022-12-28T01:39:01;3.70;;;2.13;;
3297;SDS011;1661;53.572;10.174;2022-12-28T01:41:30;6.30;;;2.70;;
3297;SDS011;1661;53.572;10.174;2022-12-28T01:47:03;6.00;;;2.67;;
3297;SDS011;1661;53.572;10.174;2022-12-28T01:49:32;5.63;;;2.90;;
3297;SDS011;1661;53.572;10.174;2022-12-28T01:52:03;4.13;;;2.60;;
3297;SDS011;1661;53.572;10.174;2022-12-28T01:54:34;10.00;;;2.87;;
3297;SDS011;1661;53.572;10.174;2022-12-28T01:57:04;13.90;;;3.80;;
3297;SDS011;1661;53.572;10.174;2022-12-28T01:59:32;9.93;;;3.50;;
3297;SDS011;1661;53.572;10.174;2022-12-28T02:02:05;6.37;;;2.07;;
3297;SDS011;1661;53.572;10.174;2022-12-28T02:04:33;5.00;;;2.70;;
3297;SDS011;1661;53.572;10.174;2022-12-28T02:07:00;3.97;;;2.50;;
3297;SDS011;1661;53.572;10.174;2022-12-28T02:09:28;8.63;;;3.03;;
3297;SDS011;1661;53.572;10.174;2022-12-28T02:12:01;11.07;;;3.07;;
3297;SDS011;1661;53.572;10.174;2022-12-28T02:14:28;7.63;;;2.40;;
3297;SDS011;1661;53.572;10.174;2022-12-28T02:16:55;10.97;;;2.50;;
3297;SDS011;1661;53.572;10.174;2022-12-28T02:19:27;12.90;;;2.60;;
3297;SDS011;1661;53.572;10.174;2022-12-28T02:22:07;12.87;;;2.23;;
3297;SDS011;1661;53.572;10.174;2022-12-28T02:25:12;7.30;;;2.80;;
3297;SDS011;1661;53.572;10.174;2022-12-28T02:28:07;9.17;;;4.00;;
3297;SDS011;1661;53.572;10.174;2022-12-28T02:30:45;9.73;;;2.37;;
3297;SDS011;1661;53.572;10.174;2022-12-28T02:33:22;4.87;;;1.90;;
3297;SDS011;1661;53.572;10.174;2022-12-28T02:35:53;5.70;;;2.30;;
3297;SDS011;1661;53.572;10.174;2022-12-28T02:38:24;7.27;;;2.93;;
3297;SDS011;1661;53.572;10.174;2022-12-28T02:40:58;2.73;;;1.90;;
3297;SDS011;1661;53.572;10.174;2022-12-28T02:43:28;3.27;;;2.23;;
3297;SDS011;1661;53.572;10.174;2022-12-28T02:46:07;6.53;;;2.53;;
3297;SDS011;1661;53.572;10.174;2022-12-28T02:48:52;5.17;;;2.67;;
3297;SDS011;1661;53.572;10.174;2022-12-28T02:51:45;5.50;;;2.30;;
3297;SDS011;1661;53.572;10.174;2022-12-28T02:54:29;4.70;;;2.40;;
3297;SDS011;1661;53.572;10.174;2022-12-28T02:57:25;2.47;;;2.27;;
3297;SDS011;1661;53.572;10.174;2022-12-28T03:00:05;2.50;;;1.93;;
3297;SDS011;1661;53.572;10.174;2022-12-28T03:05:32;8.27;;;2.30;;
3297;SDS011;1661;53.572;10.174;2022-12-28T03:08:28;5.40;;;2.30;;
3297;SDS011;1661;53.572;10.174;2022-12-28T03:11:03;5.53;;;2.87;;
3297;SDS011;1661;53.572;10.174;2022-12-28T03:13:35;9.10;;;3.07;;
3297;SDS011;1661;53.572;10.174;2022-12-28T03:16:11;6.33;;;2.27;;
3297;SDS011;1661;53.572;10.174;2022-12-28T03:18:44;4.53;;;2.50;;
3297;SDS011;1661;53.572;10.174;2022-12-28T03:21:31;9.30;;;2.33;;
3297;SDS011;1661;53.572;10.174;2022-12-28T03:24:17;4.10;;;2.10;;
3297;SDS011;1661;53.572;10.174;2022-12-28T03:27:03;6.47;;;2.27;;
3297;SDS011;1661;53.572;10.174;2022-12-28T03:29:53;9.03;;;1.90;;
3297;SDS011;1661;53.572;10.174;2022-12-28T03:32:42;9.93;;;2.60;;
3297;SDS011;1661;53.572;10.174;2022-12-28T03:35:11;7.63;;;2.10;;
3297;SDS011;1661;53.572;10.174;2022-12-28T03:37:41;8.40;;;2.33;;
3297;SDS011;1661;53.572;10.174;2022-12-28T03:40:15;7.03;;;2.40;;
3297;SDS011;1661;53.572;10.174;2022-12-28T03:42:49;6.60;;;3.70;;
3297;SDS011;1661;53.572;10.174;2022-12-28T03:45:38;5.20;;;2.60;;
3297;SDS011;1661;53.572;10.174;2022-12-28T03:48:13;4.13;;;1.70;;
3297;SDS011;1661;53.572;10.174;2022-12-28T03:50:43;8.73;;;2.83;;
3297;SDS011;1661;53.572;10.174;2022-12-28T03:53:12;4.00;;;2.20;;
3297;SDS011;1661;53.572;10.174;2022-12-28T03:55:41;4.23;;;2.67;;
3297;SDS011;1661;53.572;10.174;2022-12-28T03:58:08;2.43;;;2.23;;
3297;SDS011;1661;53.572;10.174;2022-12-28T04:00:35;9.30;;;2.60;;
3297;SDS011;1661;53.572;10.174;2022-12-28T04:03:02;6.10;;;2.37;;
3297;SDS011;1661;53.572;10.174;2022-12-28T04:05:29;6.63;;;2.40;;
3297;SDS011;1661;53.572;10.174;2022-12-28T04:07:58;9.00;;;2.80;;
3297;SDS011;1661;53.572;10.174;2022-12-28T04:10:24;5.30;;;3.40;;
3297;SDS011;1661;53.572;10.174;2022-12-28T04:12:53;6.00;;;2.30;;
3297;SDS011;1661;53.572;10.174;2022-12-28T04:15:21;11.33;;;3.17;;
3297;SDS011;1661;53.572;10.174;2022-12-28T04:17:47;11.10;;;2.43;;
3297;SDS011;1661;53.572;10.174;2022-12-28T04:20:14;6.80;;;2.27;;
3297;SDS011;1661;53.572;10.174;2022-12-28T04:22:41;7.03;;;3.30;;
3297;SDS011;1661;53.572;10.174;2022-12-28T04:25:09;14.57;;;2.97;;
3297;SDS011;1661;53.572;10.174;2022-12-28T04:27:36;9.97;;;3.07;;
3297;SDS011;1661;53.572;10.174;2022-12-28T04:30:03;5.13;;;2.90;;
3297;SDS011;1661;53.572;10.174;2022-12-28T04:32:30;12.63;;;2.77;;
3297;SDS011;1661;53.572;10.174;2022-12-28T04:34:57;4.83;;;3.07;;
3297;SDS011;1661;53.572;10.174;2022-12-28T04:37:24;10.60;;;2.70;;
3297;SDS011;1661;53.572;10.174;2022-12-28T04:39:51;7.87;;;3.13;;
3297;SDS011;1661;53.572;10.174;2022-12-28T04:42:19;7.00;;;2.33;;
3297;SDS011;1661;53.572;10.174;2022-12-28T04:44:46;6.20;;;2.97;;
3297;SDS011;1661;53.572;10.174;2022-12-28T04:47:12;5.40;;;3.73;;
3297;SDS011;1661;53.572;10.174;2022-12-28T04:49:39;4.63;;;2.43;;
3297;SDS011;1661;53.572;10.174;2022-12-28T04:52:06;7.50;;;2.57;;
3297;SDS011;1661;53.572;10.174;2022-12-28T04:54:33;4.87;;;3.70;;
3297;SDS011;1661;53.572;10.174;2022-12-28T04:56:59;5.63;;;2.87;;
3297;SDS011;1661;53.572;10.174;2022-12-28T04:59:27;5.60;;;2.77;;
3297;SDS011;1661;53.572;10.174;2022-12-28T05:01:54;7.03;;;3.40;;
3297;SDS011;1661;53.572;10.174;2022-12-28T05:04:21;5.10;;;2.87;;
3297;SDS011;1661;53.572;10.174;2022-12-28T05:06:48;8.07;;;3.20;;
3297;SDS011;1661;53.572;10.174;2022-12-28T05:09:14;11.30;;;3.37;;
3297;SDS011;1661;53.572;10.174;2022-12-28T05:11:43;13.53;;;3.80;;
3297;SDS011;1661;53.572;10.174;2022-12-28T05:14:10;8.83;;;4.53;;
3297;SDS011;1661;53.572;10.174;2022-12-28T05:16:38;4.50;;;3.13;;
3297;SDS011;1661;53.572;10.174;2022-12-28T05:19:05;11.00;;;3.60;;
3297;SDS011;1661;53.572;10.174;2022-12-28T05:21:32;12.23;;;4.07;;
3297;SDS011;1661;53.572;10.174;2022-12-28T05:23:58;5.63;;;3.73;;
3297;SDS011;1661;53.572;10.174;2022-12-28T05:26:26;6.50;;;3.53;;
3297;SDS011;1661;53.572;10.174;2022-12-28T05:28:56;15.50;;;4.30;;
3297;SDS011;1661;53.572;10.174;2022-12-28T05:31:23;6.47;;;3.80;;
3297;SDS011;1661;53.572;10.174;2022-12-28T05:33:52;8.93;;;3.60;;
3297;SDS011;1661;53.572;10.174;2022-12-28T05:36:20;4.40;;;3.47;;
3297;SDS011;1661;53.572;10.174;2022-12-28T05:38:47;6.97;;;4.03;;
3297;SDS011;1661;53.572;10.174;2022-12-28T05:41:15;13.77;;;4.37;;
3297;SDS011;1661;53.572;10.174;2022-12-28T05:43:43;3.97;;;3.57;;
3297;SDS011;1661;53.572;10.174;2022-12-28T05:46:12;14.40;;;4.40;;
3297;SDS011;1661;53.572;10.174;2022-12-28T05:48:40;11.37;;;4.47;;
3297;SDS011;1661;53.572;10.174;2022-12-28T05:51:10;13.63;;;3.40;;
3297;SDS011;1661;53.572;10.174;2022-12-28T05:53:39;13.80;;;4.43;;
3297;SDS011;1661;53.572;10.174;2022-12-28T05:56:07;6.03;;;4.00;;
3297;SDS011;1661;53.572;10.174;2022-12-28T05:58:36;6.40;;;3.97;;
3297;SDS011;1661;53.572;10.174;2022-12-28T06:01:04;5.23;;;3.60;;
3297;SDS011;1661;53.572;10.174;2022-12-28T06:03:32;6.13;;;3.53;;
3297;SDS011;1661;53.572;10.174;2022-12-28T06:06:03;6.67;;;4.73;;
3297;SDS011;1661;53.572;10.174;2022-12-28T06:08:32;4.43;;;3.43;;
3297;SDS011;1661;53.572;10.174;2022-12-28T06:11:00;8.80;;;4.10;;
3297;SDS011;1661;53.572;10.174;2022-12-28T06:13:27;3.50;;;3.20;;
3297;SDS011;1661;53.572;10.174;2022-12-28T06:15:54;6.70;;;4.07;;
3297;SDS011;1661;53.572;10.174;2022-12-28T06:18:22;4.10;;;3.70;;
3297;SDS011;1661;53.572;10.174;2022-12-28T06:20:49;4.97;;;4.07;;
3297;SDS011;1661;53.572;10.174;2022-12-28T06:23:16;9.10;;;3.47;;
3297;SDS011;1661;53.572;10.174;2022-12-28T06:25:44;6.20;;;3.20;;
3297;SDS011;1661;53.572;10.174;2022-12-28T06:28:11;11.40;;;3.93;;
3297;SDS011;1661;53.572;10.174;2022-12-28T06:30:38;10.03;;;3.80;;
3297;SDS011;1661;53.572;10.174;2022-12-28T06:33:05;6.50;;;3.00;;
3297;SDS011;1661;53.572;10.174;2022-12-28T06:35:31;7.03;;;4.20;;
3297;SDS011;1661;53.572;10.174;2022-12-28T06:37:58;5.63;;;3.90;;
3297;SDS011;1661;53.572;10.174;2022-12-28T06:40:25;9.97;;;4.17;;
3297;SDS011;1661;53.572;10.174;2022-12-28T06:42:55;6.43;;;4.40;;
3297;SDS011;1661;53.572;10.174;2022-12-28T06:45:22;4.87;;;4.00;;
3297;SDS011;1661;53.572;10.174;2022-12-28T06:47:48;12.33;;;4.07;;
3297;SDS011;1661;53.572;10.174;2022-12-28T06:50:15;7.87;;;3.90;;
3297;SDS011;1661;53.572;10.174;2022-12-28T06:52:42;9.27;;;3.53;;
3297;SDS011;1661;53.572;10.174;2022-12-28T06:55:09;8.13;;;4.43;;
3297;SDS011;1661;53.572;10.174;2022-12-28T06:57:35;4.03;;;3.63;;
3297;SDS011;1661;53.572;10.174;2022-12-28T07:00:04;5.43;;;3.80;;
3297;SDS011;1661;53.572;10.174;2022-12-28T07:02:32;3.70;;;3.40;;
3297;SDS011;1661;53.572;10.174;2022-12-28T07:04:59;4.80;;;3.90;;
3297;SDS011;1661;53.572;10.174;2022-12-28T07:07:26;4.70;;;4.17;;
3297;SDS011;1661;53.572;10.174;2022-12-28T07:09:52;4.47;;;4.17;;
3297;SDS011;1661;53.572;10.174;2022-12-28T07:12:19;3.87;;;3.13;;
3297;SDS011;1661;53.572;10.174;2022-12-28T07:14:46;3.10;;;2.67;;
3297;SDS011;1661;53.572;10.174;2022-12-28T07:17:14;3.93;;;3.50;;
3297;SDS011;1661;53.572;10.174;2022-12-28T07:19:41;7.50;;;4.50;;
3297;SDS011;1661;53.572;10.174;2022-12-28T07:22:08;5.10;;;4.40;;
3297;SDS011;1661;53.572;10.174;2022-12-28T07:24:35;3.90;;;3.50;;
3297;SDS011;1661;53.572;10.174;2022-12-28T07:27:06;4.57;;;3.20;;
3297;SDS011;1661;53.572;10.174;2022-12-28T07:29:33;4.47;;;3.17;;
3297;SDS011;1661;53.572;10.174;2022-12-28T07:32:00;6.50;;;3.37;;
3297;SDS011;1661;53.572;10.174;2022-12-28T07:34:28;3.47;;;3.17;;
3297;SDS011;1661;53.572;10.174;2022-12-28T07:36:54;4.33;;;3.07;;
3297;SDS011;1661;53.572;10.174;2022-12-28T07:39:21;4.53;;;3.97;;
3297;SDS011;1661;53.572;10.174;2022-12-28T07:41:48;4.23;;;3.53;;
3297;SDS011;1661;53.572;10.174;2022-12-28T07:44:15;4.73;;;4.20;;
3297;SDS011;1661;53.572;10.174;2022-12-28T07:46:41;4.97;;;4.33;;
3297;SDS011;1661;53.572;10.174;2022-12-28T07:49:08;4.90;;;3.40;;
3297;SDS011;1661;53.572;10.174;2022-12-28T07:51:37;7.47;;;3.93;;
3297;SDS011;1661;53.572;10.174;2022-12-28T07:54:04;6.67;;;4.50;;
3297;SDS011;1661;53.572;10.174;2022-12-28T07:56:31;3.83;;;3.30;;
3297;SDS011;1661;53.572;10.174;2022-12-28T07:58:59;3.60;;;3.20;;
3297;SDS011;1661;53.572;10.174;2022-12-28T08:01:27;4.37;;;3.40;;
3297;SDS011;1661;53.572;10.174;2022-12-28T08:03:56;6.23;;;4.00;;
3297;SDS011;1661;53.572;10.174;2022-12-28T08:06:25;7.30;;;3.43;;
3297;SDS011;1661;53.572;10.174;2022-12-28T08:08:55;4.20;;;3.80;;
3297;SDS011;1661;53.572;10.174;2022-12-28T08:11:27;3.13;;;2.87;;
3297;SDS011;1661;53.572;10.174;2022-12-28T08:13:55;3.10;;;2.87;;
3297;SDS011;1661;53.572;10.174;2022-12-28T08:16:23;3.50;;;2.33;;
3297;SDS011;1661;53.572;10.174;2022-12-28T08:18:51;3.57;;;3.27;;
3297;SDS011;1661;53.572;10.174;2022-12-28T08:21:19;4.13;;;3.77;;
3297;SDS011;1661;53.572;10.174;2022-12-28T08:23:47;4.07;;;3.20;;
3297;SDS011;1661;53.572;10.174;2022-12-28T08:26:17;4.10;;;2.77;;
3297;SDS011;1661;53.572;10.174;2022-12-28T08:28:46;6.07;;;3.87;;
3297;SDS011;1661;53.572;10.174;2022-12-28T08:31:15;3.00;;;2.70;;
3297;SDS011;1661;53.572;10.174;2022-12-28T08:33:43;7.67;;;3.70;;
3297;SDS011;1661;53.572;10.174;2022-12-28T08:36:12;4.17;;;3.87;;
3297;SDS011;1661;53.572;10.174;2022-12-28T08:38:40;4.53;;;3.70;;
3297;SDS011;1661;53.572;10.174;2022-12-28T08:41:10;5.17;;;3.93;;
3297;SDS011;1661;53.572;10.174;2022-12-28T08:43:39;5.73;;;4.17;;
3297;SDS011;1661;53.572;10.174;2022-12-28T08:46:11;4.33;;;3.70;;
3297;SDS011;1661;53.572;10.174;2022-12-28T08:48:40;3.60;;;3.40;;
3297;SDS011;1661;53.572;10.174;2022-12-28T08:51:08;4.00;;;3.70;;
3297;SDS011;1661;53.572;10.174;2022-12-28T08:53:38;4.80;;;4.40;;
3297;SDS011;1661;53.572;10.174;2022-12-28T08:56:07;3.80;;;3.50;;
3297;SDS011;1661;53.572;10.174;2022-12-28T08:58:35;5.20;;;4.80;;
3297;SDS011;1661;53.572;10.174;2022-12-28T09:01:08;4.70;;;4.20;;
3297;SDS011;1661;53.572;10.174;2022-12-28T09:03:36;4.93;;;4.53;;
3297;SDS011;1661;53.572;10.174;2022-12-28T09:06:04;5.13;;;4.63;;
3297;SDS011;1661;53.572;10.174;2022-12-28T09:08:32;7.53;;;5.00;;
3297;SDS011;1661;53.572;10.174;2022-12-28T09:10:59;7.40;;;4.70;;
3297;SDS011;1661;53.572;10.174;2022-12-28T09:13:27;5.60;;;4.70;;
3297;SDS011;1661;53.572;10.174;2022-12-28T09:15:55;5.93;;;5.07;;
3297;SDS011;1661;53.572;10.174;2022-12-28T09:18:23;4.60;;;4.30;;
3297;SDS011;1661;53.572;10.174;2022-12-28T09:20:50;6.23;;;5.63;;
3297;SDS011;1661;53.572;10.174;2022-12-28T09:23:18;6.77;;;6.17;;
3297;SDS011;1661;53.572;10.174;2022-12-28T09:25:46;6.47;;;5.87;;
3297;SDS011;1661;53.572;10.174;2022-12-28T09:28:14;6.57;;;5.83;;
3297;SDS011;1661;53.572;10.174;2022-12-28T09:30:40;11.50;;;6.87;;
3297;SDS011;1661;53.572;10.174;2022-12-28T09:33:07;7.63;;;7.00;;
3297;SDS011;1661;53.572;10.174;2022-12-28T09:35:56;11.93;;;7.10;;
3297;SDS011;1661;53.572;10.174;2022-12-28T09:38:24;6.80;;;6.17;;
3297;SDS011;1661;53.572;10.174;2022-12-28T09:40:54;11.77;;;7.50;;
3297;SDS011;1661;53.572;10.174;2022-12-28T09:43:21;9.50;;;8.70;;
3297;SDS011;1661;53.572;10.174;2022-12-28T09:45:47;8.53;;;7.73;;
3297;SDS011;1661;53.572;10.174;2022-12-28T09:48:16;8.50;;;7.13;;
3297;SDS011;1661;53.572;10.174;2022-12-28T09:50:47;10.80;;;8.30;;
3297;SDS011;1661;53.572;10.174;2022-12-28T09:53:22;8.63;;;7.83;;
3297;SDS011;1661;53.572;10.174;2022-12-28T09:55:56;9.30;;;8.40;;
3297;SDS011;1661;53.572;10.174;2022-12-28T09:58:26;9.53;;;8.60;;
3297;SDS011;1661;53.572;10.174;2022-12-28T10:00:54;7.93;;;7.13;;
3297;SDS011;1661;53.572;10.174;2022-12-28T10:03:23;8.90;;;7.90;;
3297;SDS011;1661;53.572;10.174;2022-12-28T10:05:52;10.20;;;9.20;;
3297;SDS011;1661;53.572;10.174;2022-12-28T10:08:23;9.90;;;8.03;;
3297;SDS011;1661;53.572;10.174;2022-12-28T10:10:54;9.17;;;8.27;;
3297;SDS011;1661;53.572;10.174;2022-12-28T10:13:26;11.53;;;8.50;;
3297;SDS011;1661;53.572;10.174;2022-12-28T10:15:58;8.33;;;7.20;;
3297;SDS011;1661;53.572;10.174;2022-12-28T10:18:26;7.80;;;7.03;;
3297;SDS011;1661;53.572;10.174;2022-12-28T10:20:53;10.33;;;7.57;;
3297;SDS011;1661;53.572;10.174;2022-12-28T10:23:24;9.70;;;8.07;;
3297;SDS011;1661;53.572;10.174;2022-12-28T10:25:55;8.10;;;7.40;;
3297;SDS011;1661;53.572;10.174;2022-12-28T10:28:26;7.20;;;6.60;;
3297;SDS011;1661;53.572;10.174;2022-12-28T10:31:02;6.57;;;6.07;;
3297;SDS011;1661;53.572;10.174;2022-12-28T10:33:30;7.77;;;7.07;;
3297;SDS011;1661;53.572;10.174;2022-12-28T10:35:56;8.00;;;7.37;;
3297;SDS011;1661;53.572;10.174;2022-12-28T10:38:26;7.00;;;6.13;;
3297;SDS011;1661;53.572;10.174;2022-12-28T10:40:57;8.10;;;7.30;;
3297;SDS011;1661;53.572;10.174;2022-12-28T10:43:27;7.27;;;6.57;;
3297;SDS011;1661;53.572;10.174;2022-12-28T10:45:56;7.13;;;6.50;;
3297;SDS011;1661;53.572;10.174;2022-12-28T10:48:25;7.27;;;6.53;;
3297;SDS011;1661;53.572;10.174;2022-12-28T10:50:54;9.23;;;7.60;;
3297;SDS011;1661;53.572;10.174;2022-12-28T10:53:27;6.97;;;6.30;;
3297;SDS011;1661;53.572;10.174;2022-12-28T10:56:00;8.17;;;7.37;;
3297;SDS011;1661;53.572;10.174;2022-12-28T10:58:29;7.57;;;6.77;;
3297;SDS011;1661;53.572;10.174;2022-12-28T11:00:57;7.93;;;7.27;;
3297;SDS011;1661;53.572;10.174;2022-12-28T11:03:26;7.30;;;6.60;;
3297;SDS011;1661;53.572;10.174;2022-12-28T11:08:59;8.30;;;7.37;;
3297;SDS011;1661;53.572;10.174;2022-12-28T11:11:29;7.53;;;6.87;;
3297;SDS011;1661;53.572;10.174;2022-12-28T11:13:57;12.67;;;8.60;;
3297;SDS011;1661;53.572;10.174;2022-12-28T11:16:28;7.97;;;7.17;;
3297;SDS011;1661;53.572;10.174;2022-12-28T11:18:58;7.60;;;7.00;;
3297;SDS011;1661;53.572;10.174;2022-12-28T11:21:25;6.80;;;6.20;;
3297;SDS011;1661;53.572;10.174;2022-12-28T11:23:52;11.53;;;6.83;;
3297;SDS011;1661;53.572;10.174;2022-12-28T11:26:20;5.83;;;5.43;;
3297;SDS011;1661;53.572;10.174;2022-12-28T11:28:48;7.80;;;7.20;;
3297;SDS011;1661;53.572;10.174;2022-12-28T11:31:18;6.50;;;6.00;;
3297;SDS011;1661;53.572;10.174;2022-12-28T11:33:49;6.03;;;5.60;;
3297;SDS011;1661;53.572;10.174;2022-12-28T11:36:20;6.33;;;5.83;;
3297;SDS011;1661;53.572;10.174;2022-12-28T11:38:49;6.83;;;6.00;;
3297;SDS011;1661;53.572;10.174;2022-12-28T11:44:18;5.77;;;5.27;;
3297;SDS011;1661;53.572;10.174;2022-12-28T11:47:00;5.73;;;5.33;;
3297;SDS011;1661;53.572;10.174;2022-12-28T11:49:30;7.83;;;6.83;;
3297;SDS011;1661;53.572;10.174;2022-12-28T12:01:46;7.80;;;4.87;;
3297;SDS011;1661;53.572;10.174;2022-12-28T12:04:16;4.30;;;3.90;;
3297;SDS011;1661;53.572;10.174;2022-12-28T12:12:54;3.93;;;3.73;;
3297;SDS011;1661;53.572;10.174;2022-12-28T12:15:23;4.03;;;3.73;;
3297;SDS011;1661;53.572;10.174;2022-12-28T12:17:59;4.23;;;3.93;;
3297;SDS011;1661;53.572;10.174;2022-12-28T12:20:30;4.07;;;3.67;;
3297;SDS011;1661;53.572;10.174;2022-12-28T12:23:16;5.10;;;4.63;;
3297;SDS011;1661;53.572;10.174;2022-12-28T12:26:00;3.60;;;3.30;;
3297;SDS011;1661;53.572;10.174;2022-12-28T12:28:42;3.80;;;3.60;;
3297;SDS011;1661;53.572;10.174;2022-12-28T12:31:13;4.67;;;3.57;;
3297;SDS011;1661;53.572;10.174;2022-12-28T12:33:47;3.77;;;3.47;;
3297;SDS011;1661;53.572;10.174;2022-12-28T12:36:24;3.30;;;3.00;;
3297;SDS011;1661;53.572;10.174;2022-12-28T12:39:10;4.17;;;3.87;;
3297;SDS011;1661;53.572;10.174;2022-12-28T12:42:04;4.00;;;3.70;;
3297;SDS011;1661;53.572;10.174;2022-12-28T12:44:39;5.00;;;4.50;;
3297;SDS011;1661;53.572;10.174;2022-12-28T12:47:17;8.20;;;3.87;;
3297;SDS011;1661;53.572;10.174;2022-12-28T12:50:17;4.03;;;3.73;;
3297;SDS011;1661;53.572;10.174;2022-12-28T12:52:53;4.70;;;4.40;;
3297;SDS011;1661;53.572;10.174;2022-12-28T12:55:29;5.73;;;4.47;;
3297;SDS011;1661;53.572;10.174;2022-12-28T12:58:07;4.47;;;4.17;;
3297;SDS011;1661;53.572;10.174;2022-12-28T13:00:46;5.20;;;4.70;;
3297;SDS011;1661;53.572;10.174;2022-12-28T13:03:28;4.93;;;4.53;;
3297;SDS011;1661;53.572;10.174;2022-12-28T13:06:02;4.80;;;4.40;;
3297;SDS011;1661;53.572;10.174;2022-12-28T13:08:34;5.10;;;4.60;;
3297;SDS011;1661;53.572;10.174;2022-12-28T13:11:03;5.27;;;4.73;;
3297;SDS011;1661;53.572;10.174;2022-12-28T13:13:34;5.80;;;5.37;;
3297;SDS011;1661;53.572;10.174;2022-12-28T13:16:04;4.90;;;4.50;;
3297;SDS011;1661;53.572;10.174;2022-12-28T13:18:35;4.27;;;3.97;;
3297;SDS011;1661;53.572;10.174;2022-12-28T13:21:04;5.27;;;4.83;;
3297;SDS011;1661;53.572;10.174;2022-12-28T13:23:32;5.23;;;4.73;;
3297;SDS011;1661;53.572;10.174;2022-12-28T13:26:08;5.07;;;4.77;;
3297;SDS011;1661;53.572;10.174;2022-12-28T13:28:43;5.50;;;5.07;;
3297;SDS011;1661;53.572;10.174;2022-12-28T13:31:16;4.77;;;4.40;;
3297;SDS011;1661;53.572;10.174;2022-12-28T13:33:55;5.47;;;4.07;;
3297;SDS011;1661;53.572;10.174;2022-12-28T13:36:25;5.40;;;5.00;;
3297;SDS011;1661;53.572;10.174;2022-12-28T13:41:43;6.20;;;5.70;;
3297;SDS011;1661;53.572;10.174;2022-12-28T13:44:25;9.30;;;5.50;;
3297;SDS011;1661;53.572;10.174;2022-12-28T13:47:12;7.87;;;5.63;;
3297;SDS011;1661;53.572;10.174;2022-12-28T13:49:46;8.77;;;5.83;;
3297;SDS011;1661;53.572;10.174;2022-12-28T13:52:21;6.67;;;6.17;;
3297;SDS011;1661;53.572;10.174;2022-12-28T13:54:52;6.80;;;5.67;;
3297;SDS011;1661;53.572;10.174;2022-12-28T13:57:23;6.30;;;5.80;;
3297;SDS011;1661;53.572;10.174;2022-12-28T13:59:52;7.23;;;6.63;;
3297;SDS011;1661;53.572;10.174;2022-12-28T14:02:20;6.80;;;6.20;;
3297;SDS011;1661;53.572;10.174;2022-12-28T14:04:49;6.90;;;5.97;;
3297;SDS011;1661;53.572;10.174;2022-12-28T14:07:18;6.63;;;6.03;;
3297;SDS011;1661;53.572;10.174;2022-12-28T14:09:48;7.40;;;6.70;;
3297;SDS011;1661;53.572;10.174;2022-12-28T14:12:16;7.30;;;6.60;;
3297;SDS011;1661;53.572;10.174;2022-12-28T14:14:44;7.27;;;6.57;;
3297;SDS011;1661;53.572;10.174;2022-12-28T14:17:12;8.93;;;7.13;;
3297;SDS011;1661;53.572;10.174;2022-12-28T14:19:40;10.30;;;6.47;;
3297;SDS011;1661;53.572;10.174;2022-12-28T14:22:25;8.97;;;7.13;;
3297;SDS011;1661;53.572;10.174;2022-12-28T14:25:00;6.17;;;5.73;;
3297;SDS011;1661;53.572;10.174;2022-12-28T14:27:31;6.43;;;5.93;;
3297;SDS011;1661;53.572;10.174;2022-12-28T14:30:00;7.20;;;6.57;;
3297;SDS011;1661;53.572;10.174;2022-12-28T14:32:27;9.50;;;8.33;;
3297;SDS011;1661;53.572;10.174;2022-12-28T14:34:55;8.30;;;6.37;;
3297;SDS011;1661;53.572;10.174;2022-12-28T14:37:25;12.60;;;10.10;;
3297;SDS011;1661;53.572;10.174;2022-12-28T14:39:57;13.53;;;9.20;;
3297;SDS011;1661;53.572;10.174;2022-12-28T14:42:26;8.30;;;7.17;;
3297;SDS011;1661;53.572;10.174;2022-12-28T14:44:54;9.40;;;8.60;;
3297;SDS011;1661;53.572;10.174;2022-12-28T14:47:32;8.73;;;7.93;;
3297;SDS011;1661;53.572;10.174;2022-12-28T14:50:13;8.13;;;7.33;;
3297;SDS011;1661;53.572;10.174;2022-12-28T14:52:43;6.23;;;5.63;;
3297;SDS011;1661;53.572;10.174;2022-12-28T14:55:19;6.60;;;5.90;;
3297;SDS011;1661;53.572;10.174;2022-12-28T14:57:52;7.20;;;6.60;;
3297;SDS011;1661;53.572;10.174;2022-12-28T15:00:24;8.10;;;6.93;;
3297;SDS011;1661;53.572;10.174;2022-12-28T15:02:53;6.57;;;6.07;;
3297;SDS011;1661;53.572;10.174;2022-12-28T15:05:34;6.87;;;6.23;;
3297;SDS011;1661;53.572;10.174;2022-12-28T15:08:07;5.87;;;5.30;;
3297;SDS011;1661;53.572;10.174;2022-12-28T15:10:36;6.03;;;5.53;;
3297;SDS011;1661;53.572;10.174;2022-12-28T15:13:05;5.67;;;5.13;;
3297;SDS011;1661;53.572;10.174;2022-12-28T15:15:32;7.97;;;5.50;;
3297;SDS011;1661;53.572;10.174;2022-12-28T15:17:59;5.03;;;4.57;;
3297;SDS011;1661;53.572;10.174;2022-12-28T15:20:26;5.20;;;4.67;;
3297;SDS011;1661;53.572;10.174;2022-12-28T15:22:53;6.80;;;4.90;;
3297;SDS011;1661;53.572;10.174;2022-12-28T15:25:21;5.03;;;4.63;;
3297;SDS011;1661;53.572;10.174;2022-12-28T15:27:48;6.10;;;5.67;;
3297;SDS011;1661;53.572;10.174;2022-12-28T15:30:16;5.80;;;5.30;;
3297;SDS011;1661;53.572;10.174;2022-12-28T15:32:43;5.70;;;5.20;;
3297;SDS011;1661;53.572;10.174;2022-12-28T15:35:10;5.80;;;5.10;;
3297;SDS011;1661;53.572;10.174;2022-12-28T15:37:37;9.97;;;5.43;;
3297;SDS011;1661;53.572;10.174;2022-12-28T15:40:04;6.10;;;5.60;;
3297;SDS011;1661;53.572;10.174;2022-12-28T15:42:33;6.20;;;5.20;;
3297;SDS011;1661;53.572;10.174;2022-12-28T15:45:00;5.70;;;5.20;;
3297;SDS011;1661;53.572;10.174;2022-12-28T15:47:27;5.70;;;5.30;;
3297;SDS011;1661;53.572;10.174;2022-12-28T15:49:54;5.73;;;5.23;;